Latest Weather Observations for Maryborough

IDQ60801

Issued at 6:32 am EST Monday 26 September 2016 (issued every 30 minutes, with the page automatically refreshed every 10 minutes)

About weather observations | Map of weather stations | Latest weather observations for QLD | Other Formats
Station Details ID: 040126 Name: MARYBOROUGH Lat: -25.51 Lon: 152.72 Height: 8.98 m
Data from the previous 72 hours. | See also: Recent months at Maryborough
Date/Time
EST
Temp
°C
App
Temp
°C
Dew
Point
°C
Rel
Hum
%
Delta-T
°C
Wind Press
QNH
hPa
Press
MSL
hPa
Rain since
9am
mm
Dir  Spd
km/h
Gust
km/h
Spd
kts
Gust
kts
26/06:30am 12.5 12.9 11.4 93 0.6 CALM 0 9 0 5 1013.2 - 1.2
26/06:00am 10.3 9.7 9.1 92 0.6 NW 2 7 1 4 1012.7 1012.7 1.2
26/05:30am 10.2 9.9 8.8 91 0.7 CALM 0 0 0 0 1012.4 - 1.2
26/05:00am 10.8 10.6 9.1 89 0.8 CALM 0 0 0 0 1012.1 - 1.2
26/04:30am 11.6 11.5 9.3 86 1.2 CALM 0 0 0 0 1011.7 - 1.2
26/04:00am 11.9 11.8 9.3 84 1.3 CALM 0 0 0 0 1011.5 - 1.2
26/03:30am 11.5 11.3 8.9 84 1.3 CALM 0 0 0 0 1011.3 - 1.2
26/03:00am 12.0 11.8 9.0 82 1.5 CALM 0 0 0 0 1011.1 1011.1 1.2
26/02:30am 12.9 12.6 8.8 76 2.1 CALM 0 0 0 0 1011.0 - 1.2
26/02:00am 13.7 12.3 9.6 76 2.1 ENE 7 11 4 6 1011.0 - 1.2
26/01:30am 14.2 11.5 7.3 63 3.4 S 11 13 6 7 1010.8 - 1.2
26/01:00am 15.2 13.2 7.2 59 3.9 SW 7 11 4 6 1010.9 - 1.2
26/12:30am 16.5 16.1 8.2 58 4.2 CALM 0 0 0 0 1010.9 - 1.2
26/12:00am 20.1 17.5 7.8 45 6.3 SW 11 17 6 9 1010.9 1010.9 1.2
 
Date/Time
EST
Temp
°C
App
Temp
°C
Dew
Point
°C
Rel
Hum
%
Delta-T
°C
Wind Press
QNH
hPa
Press
MSL
hPa
Rain since
9am
mm
Dir  Spd
km/h
Gust
km/h
Spd
kts
Gust
kts
25/11:30pm 20.9 17.0 8.5 45 6.5 SW 19 26 10 14 1010.9 - 1.2
25/11:00pm 21.4 17.6 9.0 45 6.6 SSW 19 24 10 13 1010.9 - 1.2
25/10:30pm 22.0 18.6 9.2 44 6.8 SW 17 26 9 14 1010.8 - 1.2
25/10:00pm 22.7 18.5 9.8 44 7.0 SW 22 32 12 17 1010.7 - 1.2
25/09:30pm 23.1 18.7 10.5 45 6.9 SSW 24 33 13 18 1010.6 - 1.2
25/09:00pm 22.8 19.2 11.8 50 6.2 SSW 22 30 12 16 1010.2 1010.2 1.2
25/08:30pm 22.1 20.3 14.5 62 4.5 S 17 22 9 12 1009.7 - 1.2
25/08:00pm 21.5 21.7 17.7 79 2.3 S 13 19 7 10 1009.3 - 1.2
25/07:45pm 20.5 22.7 19.5 94 0.6 SSW 7 17 4 9 1009.1 - 1.2
25/07:30pm 20.8 23.2 20.1 96 0.4 S 7 15 4 8 1009.0 - 1.2
25/07:00pm 21.4 24.1 20.2 93 0.8 N 6 9 3 5 1008.1 - 1.2
25/06:44pm 21.5 24.0 19.8 90 1.1 N 6 9 3 5 1007.8 - 1.2
25/06:30pm 22.0 24.6 20.5 91 1.0 N 7 11 4 6 1007.6 - 1.2
25/06:00pm 22.6 24.9 20.7 89 1.2 NNE 9 15 5 8 1007.1 1007.1 1.2
25/05:30pm 23.4 25.8 20.9 86 1.6 N 9 13 5 7 1006.6 - 1.2
25/05:00pm 24.3 26.3 20.8 81 2.3 N 11 20 6 11 1006.1 - 1.2
25/04:30pm 24.1 26.8 21.4 85 1.8 N 9 13 5 7 1005.7 - 1.2
25/04:00pm 23.2 23.3 19.1 78 2.6 NNW 17 24 9 13 1005.6 - 1.2
25/03:57pm 23.1 22.8 19.1 78 2.5 NNW 19 24 10 13 1005.5 - 1.2
25/03:42pm 23.4 25.6 21.1 87 1.5 NNE 11 17 6 9 1005.7 - 1.2
25/03:30pm 24.0 25.6 20.7 82 2.2 SSE 13 15 7 8 1005.9 - 0.2
25/03:00pm 24.2 24.5 20.3 79 2.5 N 19 30 10 16 1005.7 1005.7 0.2
25/02:30pm 27.5 26.3 19.3 61 5.3 N 24 35 13 19 1005.0 - 0.0
25/02:00pm 27.8 27.2 19.8 61 5.2 N 22 33 12 18 1005.3 - 0.0
25/01:30pm 28.3 28.1 18.4 55 6.3 N 17 28 9 15 1005.4 - 0.0
25/01:00pm 29.4 30.3 18.5 52 7.0 N 11 19 6 10 1005.9 - 0.0
25/12:30pm 28.9 28.0 15.8 45 8.1 W 15 28 8 15 1006.4 - 0.0
25/12:00pm 28.8 28.1 16.4 47 7.7 WNW 15 32 8 17 1007.1 1007.1 0.0
25/11:30am 28.6 29.4 18.1 53 6.7 W 11 20 6 11 1007.9 - 0.0
25/11:00am 27.4 27.7 17.8 55 6.1 W 13 17 7 9 1008.6 - 0.0
25/10:30am 26.8 26.7 17.0 55 6.1 WSW 13 19 7 10 1008.9 - 0.0
25/10:00am 27.0 28.1 18.8 60 5.3 W 11 17 6 9 1009.0 - 0.0
25/09:30am 25.6 25.9 18.0 63 4.8 W 13 19 7 10 1010.0 - 0.0
25/09:00am 24.8 26.1 18.5 68 4.0 WSW 9 17 5 9 1010.2 1010.2 0.0
25/08:30am 23.7 25.4 18.4 72 3.3 W 7 13 4 7 1010.6 - 0.0
25/08:00am 21.7 23.3 17.9 79 2.4 WSW 6 7 3 4 1010.7 - 0.0
25/07:30am 20.6 21.6 17.8 84 1.7 SW 9 13 5 7 1010.7 - 0.0
25/07:00am 19.7 20.3 17.7 88 1.2 SW 11 13 6 7 1010.6 - 0.0
25/06:30am 19.5 21.9 18.0 91 0.9 N 2 6 1 3 1010.1 - 0.0
25/06:00am 18.8 21.2 17.1 90 1.0 CALM 0 0 0 0 1009.3 1009.3 0.0
25/05:59am 18.8 21.2 17.1 90 1.0 CALM 0 0 0 0 1009.3 - 0.0
25/05:30am 19.0 20.5 17.5 91 0.9 N 6 9 3 5 1009.2 - 0.0
25/05:17am 18.6 21.0 16.9 90 1.0 CALM 0 0 0 0 1009.1 - 0.0
25/05:15am 18.6 21.0 16.9 90 1.0 CALM 0 0 0 0 1009.0 - 0.0
25/05:00am 18.8 21.2 17.1 90 1.0 CALM 0 0 0 0 1008.7 - 0.0
25/04:30am 18.7 21.2 17.2 91 0.9 CALM 0 0 0 0 1008.6 - 0.0
25/04:00am 18.6 20.9 16.8 89 1.1 CALM 0 0 0 0 1008.4 - 0.0
25/03:30am 18.6 21.0 16.9 90 1.0 CALM 0 0 0 0 1008.5 - 0.0
25/03:24am 18.5 20.8 16.7 89 1.1 CALM 0 0 0 0 1008.6 - 0.0
25/03:15am 18.4 20.6 16.6 89 1.1 CALM 0 0 0 0 1008.6 - 0.0
25/03:00am 18.8 21.2 16.9 89 1.1 CALM 0 6 0 3 1008.6 1008.6 0.0
25/02:30am 18.8 19.9 17.1 90 1.0 N 7 7 4 4 1008.8 - 0.0
25/02:00am 18.9 20.4 17.7 93 0.7 N 6 7 3 4 1008.9 - 0.0
25/01:30am 18.3 20.8 17.3 94 0.6 CALM 0 0 0 0 1009.1 - 0.0
25/01:00am 17.8 20.3 17.2 96 0.4 CALM 0 0 0 0 1009.2 - 0.0
25/12:30am 17.1 19.2 16.3 95 0.5 CALM 0 0 0 0 1009.6 - 0.0
25/12:17am 16.2 17.9 15.2 94 0.6 CALM 0 0 0 0 1009.6 - 0.0
25/12:00am 16.2 17.9 15.2 94 0.6 CALM 0 0 0 0 1009.7 1009.7 0.0
 
Date/Time
EST
Temp
°C
App
Temp
°C
Dew
Point
°C
Rel
Hum
%
Delta-T
°C
Wind Press
QNH
hPa
Press
MSL
hPa
Rain since
9am
mm
Dir  Spd
km/h
Gust
km/h
Spd
kts
Gust
kts
24/11:57pm 16.1 17.8 15.1 94 0.6 CALM 0 0 0 0 1009.7 - 0.0
24/11:48pm 16.2 17.9 15.2 94 0.6 CALM 0 0 0 0 1009.8 - 0.0
24/11:30pm 16.4 18.2 15.6 95 0.5 CALM 0 0 0 0 1009.9 - 0.0
24/11:17pm 16.4 17.6 15.8 96 0.4 N 4 7 2 4 1010.1 - 0.0
24/11:00pm 15.7 16.0 14.6 93 0.6 NE 6 9 3 5 1010.1 - 0.0
24/10:51pm 15.6 16.3 14.6 94 0.6 NE 4 9 2 5 1010.2 - 0.0
24/10:34pm 15.9 16.2 14.9 94 0.6 NE 7 9 4 5 1010.2 - 0.0
24/10:30pm 16.0 16.3 15.0 94 0.6 NE 7 9 4 5 1010.3 - 0.0
24/10:06pm 15.6 15.8 14.3 92 0.7 NE 6 6 3 3 1010.9 - 0.0
24/10:00pm 15.5 15.7 14.2 92 0.7 NE 6 7 3 4 1011.0 - 0.0
24/09:30pm 16.0 16.2 14.7 92 0.7 NE 7 9 4 5 1011.1 - 0.0
24/09:00pm 16.7 16.9 14.2 85 1.4 NE 6 7 3 4 1011.0 1011.0 0.0
24/08:30pm 17.5 17.8 15.1 86 1.4 NNE 7 11 4 6 1010.9 - 0.0
24/08:00pm 16.8 16.5 13.3 80 2.0 NNE 7 7 4 4 1010.5 - 0.0
24/07:30pm 17.7 17.7 14.2 80 2.0 N 7 9 4 5 1010.2 - 0.0
24/07:00pm 19.2 19.4 14.2 73 2.9 N 6 9 3 5 1009.8 - 0.0
24/06:30pm 20.3 19.6 14.4 69 3.4 N 11 15 6 8 1009.3 - 0.0
24/06:00pm 20.9 20.0 13.6 63 4.2 N 11 19 6 10 1008.9 1008.9 0.0
24/05:30pm 22.0 20.0 12.8 56 5.2 N 15 20 8 11 1008.5 - 0.0
24/05:00pm 23.4 20.8 12.1 49 6.4 N 17 24 9 13 1008.1 - 0.0
24/04:30pm 24.5 21.3 11.1 43 7.5 N 19 24 10 13 1007.9 - 0.0
24/04:00pm 25.5 22.5 10.5 39 8.4 N 17 28 9 15 1007.7 - 0.0
24/03:30pm 26.2 23.1 10.4 37 8.8 N 17 26 9 14 1007.6 - 0.0
24/03:00pm 27.4 24.8 10.6 35 9.5 N 15 30 8 16 1007.9 1007.9 0.0
24/02:30pm 29.0 24.4 5.8 23 12.2 WNW 19 32 10 17 1008.3 - 0.0
24/02:00pm 29.0 24.9 6.4 24 12.0 WNW 17 30 9 16 1008.6 - 0.0
24/01:30pm 28.1 22.8 6.8 26 11.3 WNW 24 33 13 18 1009.2 - 0.0
24/01:00pm 28.2 24.0 7.4 27 11.2 NW 19 30 10 16 1009.7 - 0.0
24/12:30pm 28.6 22.5 8.3 28 11.1 NW 30 35 16 19 1010.1 - 0.0
24/12:00pm 27.5 23.5 8.4 30 10.4 WNW 19 35 10 19 1010.8 1010.8 0.0
24/11:30am 26.2 22.2 8.2 32 9.7 NNW 19 30 10 16 1011.5 - 0.0
24/11:00am 26.4 23.5 9.7 35 9.2 NW 15 26 8 14 1012.1 - 0.0
24/10:30am 25.0 21.7 8.1 34 9.0 W 15 24 8 13 1012.5 - 0.0
24/10:00am 24.2 21.8 8.6 37 8.4 WNW 11 28 6 15 1013.0 - 0.0
24/09:30am 22.7 20.7 8.8 41 7.4 WSW 9 15 5 8 1013.4 - 0.0
24/09:00am 22.0 19.7 8.9 43 7.0 W 11 17 6 9 1013.7 1013.7 0.0
24/08:30am 20.6 19.0 8.9 47 6.2 WSW 7 13 4 7 1013.9 - 0.0
24/08:00am 18.9 17.0 9.1 53 5.1 WSW 9 13 5 7 1013.9 - 0.0
24/07:30am 16.8 15.0 9.5 62 3.8 WSW 9 11 5 6 1013.9 - 0.0
24/07:00am 13.2 13.5 10.9 86 1.2 CALM 0 0 0 0 1013.7 - 0.0
24/06:30am 9.4 9.1 8.6 95 0.4 CALM 0 0 0 0 1013.4 - 0.0
24/06:00am 7.2 6.4 6.3 94 0.4 CALM 0 0 0 0 1013.2 1013.2 0.0
24/05:30am 6.9 6.0 6.0 94 0.4 CALM 0 0 0 0 1012.9 - 0.0
24/05:00am 7.1 6.2 6.0 93 0.5 CALM 0 0 0 0 1012.6 - 0.0
24/04:30am 7.0 6.0 5.8 92 0.5 CALM 0 0 0 0 1012.3 - 0.0
24/04:00am 7.8 7.0 6.6 92 0.6 CALM 0 0 0 0 1012.0 - 0.0
24/03:30am 7.9 7.1 6.7 92 0.6 CALM 0 0 0 0 1011.7 - 0.0
24/03:00am 7.9 7.1 6.5 91 0.6 CALM 0 0 0 0 1011.5 1011.5 0.0
24/02:30am 8.0 7.2 6.3 89 0.8 CALM 0 0 0 0 1011.7 - 0.0
24/02:00am 8.3 7.4 6.1 86 1.0 CALM 0 0 0 0 1011.8 - 0.0
24/01:30am 9.2 8.4 6.6 84 1.2 CALM 0 0 0 0 1012.0 - 0.0
24/01:00am 9.6 9.0 7.2 85 1.1 CALM 0 0 0 0 1012.1 - 0.0
24/12:30am 9.5 8.8 7.1 85 1.1 CALM 0 0 0 0 1011.9 - 0.0
24/12:00am 9.5 8.4 7.1 85 1.1 W 2 6 1 3 1012.3 1012.3 0.0
 
Date/Time
EST
Temp
°C
App
Temp
°C
Dew
Point
°C
Rel
Hum
%
Delta-T
°C
Wind Press
QNH
hPa
Press
MSL
hPa
Rain since
9am
mm
Dir  Spd
km/h
Gust
km/h
Spd
kts
Gust
kts
23/11:30pm 10.1 9.5 7.5 84 1.2 CALM 0 0 0 0 1012.2 - 0.0
23/11:00pm 10.1 9.5 7.5 84 1.2 CALM 0 0 0 0 1012.4 - 0.0
23/10:30pm 10.7 10.1 7.6 81 1.5 CALM 0 0 0 0 1012.4 - 0.0
23/10:00pm 11.1 10.5 7.4 78 1.8 CALM 0 0 0 0 1012.4 - 0.0
23/09:30pm 12.1 10.8 7.6 74 2.2 W 4 7 2 4 1012.5 - 0.0
23/09:00pm 12.0 10.0 7.3 73 2.3 W 7 9 4 5 1012.5 1012.5 0.0
23/08:30pm 13.1 11.8 7.5 69 2.7 W 4 7 2 4 1012.4 - 0.0
23/08:00pm 13.7 12.9 6.6 62 3.4 CALM 0 0 0 0 1012.1 - 0.0
23/07:30pm 14.5 12.2 5.0 53 4.4 W 6 7 3 4 1011.9 - 0.0
23/07:00pm 15.7 14.4 5.9 52 4.7 W 2 6 1 3 1011.4 - 0.0
23/06:30pm 17.1 14.7 5.1 45 5.7 W 7 7 4 4 1011.0 - 0.0
23/06:00pm 20.2 17.8 5.1 37 7.4 W 7 7 4 4 1010.5 1010.5 0.0
23/05:30pm 23.7 19.5 3.6 27 9.8 W 15 19 8 10 1010.0 - 0.0
23/05:00pm 24.8 19.7 2.9 24 10.6 W 19 26 10 14 1009.7 - 0.0
23/04:30pm 25.3 20.4 3.9 25 10.6 WSW 19 28 10 15 1009.3 - 0.0
23/04:00pm 25.7 20.4 3.0 23 11.1 W 20 28 11 15 1009.1 - 0.0
23/03:30pm 26.3 21.4 5.3 26 10.7 W 20 32 11 17 1008.9 - 0.0
23/03:00pm 25.6 20.5 2.9 23 11.1 WSW 19 43 10 23 1009.1 1009.1 0.0
23/02:30pm 25.9 20.5 4.4 25 10.8 WSW 22 37 12 20 1009.3 - 0.0
23/02:00pm 25.8 20.7 5.9 28 10.3 W 22 32 12 17 1009.5 - 0.0
23/01:30pm 25.4 19.5 5.6 28 10.1 W 26 35 14 19 1009.9 - 0.0
23/01:00pm 25.1 19.1 5.3 28 10.0 W 26 35 14 19 1010.1 - 0.0
23/12:30pm 24.4 19.6 5.7 30 9.5 W 20 30 11 16 1010.8 - 0.0
23/12:00pm 23.8 17.8 5.2 30 9.4 W 26 39 14 21 1011.2 1011.2 0.0
23/11:30am 23.3 20.1 7.0 35 8.4 W 13 30 7 16 1011.7 - 0.0
23/11:00am 22.6 16.1 4.6 31 8.9 W 28 37 15 20 1012.4 - 0.0
23/10:30am 22.6 18.4 8.3 40 7.5 SW 20 33 11 18 1012.8 - 0.0
23/10:00am 21.5 16.9 8.1 42 7.0 WSW 22 32 12 17 1013.2 - 0.0
23/09:30am 20.8 15.6 7.4 42 6.9 WSW 24 37 13 20 1013.6 - 0.0
23/09:00am 20.2 16.2 8.2 46 6.2 WSW 19 26 10 14 1013.8 1013.8 0.2
23/08:30am 19.3 16.4 9.5 53 5.2 SW 15 28 8 15 1014.0 - 0.2
23/08:00am 17.9 14.7 9.8 59 4.3 WSW 17 22 9 12 1014.0 - 0.2
23/07:30am 17.0 14.5 9.7 62 3.8 WSW 13 20 7 11 1013.9 - 0.2
23/07:00am 15.5 13.0 9.6 68 3.1 WSW 13 17 7 9 1013.8 - 0.2

Other Formats:

Comma delimited format used in spreadsheet applications
http://www.bom.gov.au/fwo/IDQ60801/IDQ60801.94567.axf

JavaScript Object Notation format (JSON) in row-major order
http://www.bom.gov.au/fwo/IDQ60801/IDQ60801.94567.json